createdAt,value
2018-12-25T00:05:42.359Z,3.59
2018-12-25T00:11:37.352Z,3.89
2018-12-25T00:17:32.398Z,4.28
2018-12-25T00:23:27.358Z,3.32
2018-12-25T00:29:22.377Z,4.02
2018-12-25T00:35:17.390Z,3.93
2018-12-25T00:41:12.410Z,3.62
2018-12-25T00:47:07.400Z,3.73
2018-12-25T00:53:02.394Z,3.23
2018-12-25T00:58:57.411Z,12.36
2018-12-25T01:04:52.434Z,3.31
2018-12-25T01:10:47.389Z,3.84
2018-12-25T01:16:42.420Z,2.13
2018-12-25T01:22:37.412Z,1.34
2018-12-25T01:28:32.421Z,1.56
2018-12-25T01:34:27.447Z,1.61
2018-12-25T01:40:22.415Z,2.15
2018-12-25T01:46:17.451Z,1.97
2018-12-25T01:52:12.409Z,2.97
2018-12-25T01:58:07.455Z,2.9
2018-12-25T02:04:02.427Z,3.28
2018-12-25T02:09:57.435Z,2.77
2018-12-25T02:15:52.422Z,2.63
2018-12-25T02:21:47.438Z,2.79
2018-12-25T02:27:42.449Z,2.82
2018-12-25T02:33:37.435Z,3.54
2018-12-25T02:39:32.480Z,2.87
2018-12-25T02:45:27.462Z,2.87
2018-12-25T02:51:22.443Z,2.94
2018-12-25T02:57:17.472Z,2.84
2018-12-25T03:03:12.461Z,2.67
2018-12-25T03:09:07.510Z,2.12
2018-12-25T03:15:02.474Z,2.58
2018-12-25T03:20:57.471Z,2.59
2018-12-25T03:26:52.518Z,2.4
2018-12-25T03:32:47.495Z,2.66
2018-12-25T03:38:42.492Z,3.08
2018-12-25T03:44:37.487Z,2.06
2018-12-25T03:50:32.465Z,2.05
2018-12-25T03:56:27.480Z,2.21
2018-12-25T04:02:22.513Z,2.1
2018-12-25T04:08:17.491Z,2.39
2018-12-25T04:14:12.585Z,2.28
2018-12-25T04:20:07.497Z,2.34
2018-12-25T04:26:02.554Z,2.23
2018-12-25T04:31:57.499Z,3.36
2018-12-25T04:37:52.517Z,2.66
2018-12-25T04:43:47.564Z,2.47
2018-12-25T04:49:42.523Z,2.49
2018-12-25T04:55:37.561Z,2.84
2018-12-25T05:01:32.549Z,3.04
2018-12-25T05:07:27.548Z,2.43
2018-12-25T05:13:22.529Z,3.2
2018-12-25T05:19:17.539Z,2.64
2018-12-25T05:25:12.546Z,2.83
2018-12-25T05:31:07.531Z,2.55
2018-12-25T05:37:02.543Z,2.53
2018-12-25T05:42:57.589Z,3.3
2018-12-25T05:48:52.579Z,3.73
2018-12-25T05:54:47.578Z,2.77
2018-12-25T06:00:42.587Z,2.73
2018-12-25T06:06:37.579Z,2.97
2018-12-25T06:12:32.566Z,2.66
2018-12-25T06:18:27.602Z,3.25
2018-12-25T06:24:22.622Z,3.32
2018-12-25T06:30:17.582Z,3.54
2018-12-25T06:36:12.623Z,3.08
2018-12-25T06:42:07.588Z,2.69
2018-12-25T06:48:02.576Z,3.64
2018-12-25T06:53:57.663Z,3.93
2018-12-25T06:59:52.647Z,3.29
2018-12-25T07:05:47.595Z,4.22
2018-12-25T07:11:42.604Z,5.19
2018-12-25T07:17:37.615Z,4.66
2018-12-25T07:23:32.600Z,4.92
2018-12-25T07:29:27.590Z,4.58
2018-12-25T07:35:22.640Z,4.82
2018-12-25T07:41:17.654Z,9.9
2018-12-25T07:47:12.625Z,8.42
2018-12-25T07:53:07.608Z,5.12
2018-12-25T07:59:02.617Z,4.18
2018-12-25T08:04:57.618Z,5.17
2018-12-25T08:10:52.644Z,5.29
2018-12-25T08:16:47.642Z,4.97
2018-12-25T08:22:42.687Z,4.8
2018-12-25T08:28:37.645Z,5.19
2018-12-25T08:34:32.634Z,5.01
2018-12-25T08:40:27.633Z,5.35
2018-12-25T08:46:22.657Z,5.75
2018-12-25T08:52:17.671Z,6.32
2018-12-25T08:58:12.685Z,5.94
2018-12-25T09:04:07.678Z,6.09
2018-12-25T09:10:02.669Z,6.21
2018-12-25T09:15:57.702Z,6.53
2018-12-25T09:21:52.662Z,4.96
2018-12-25T09:27:47.665Z,4.3
2018-12-25T09:33:42.659Z,5.19
2018-12-25T09:39:37.666Z,4.52
2018-12-25T09:45:32.704Z,7.19
2018-12-25T09:51:27.696Z,4.12
2018-12-25T09:57:22.679Z,3.41
2018-12-25T10:03:17.679Z,4.02
2018-12-25T10:09:12.723Z,3.11
2018-12-25T10:15:07.730Z,2.84
2018-12-25T10:21:02.705Z,2.93
2018-12-25T10:26:57.686Z,2.35
2018-12-25T10:32:52.703Z,2.63
2018-12-25T10:38:47.747Z,3.59
2018-12-25T10:44:42.700Z,2.62
2018-12-25T10:50:37.704Z,2.89
2018-12-25T10:56:32.725Z,2.85
2018-12-25T11:02:27.738Z,2.07
2018-12-25T11:08:22.800Z,3.6
2018-12-25T11:14:17.739Z,2.92
2018-12-25T11:20:12.732Z,2.92
2018-12-25T11:26:07.726Z,2.58
2018-12-25T11:32:02.782Z,4.04
2018-12-25T11:37:57.744Z,4.68
2018-12-25T11:43:52.727Z,3.76
2018-12-25T11:49:47.757Z,3.57
2018-12-25T11:55:42.759Z,2.91
2018-12-25T12:01:37.759Z,3.38
2018-12-25T12:07:32.768Z,3.83
2018-12-25T12:13:27.748Z,2.43
2018-12-25T12:19:22.754Z,2.84
2018-12-25T12:25:17.769Z,2.04
2018-12-25T12:31:12.793Z,1.56
2018-12-25T12:37:07.786Z,1.63
2018-12-25T12:43:02.778Z,1.6
2018-12-25T12:48:57.805Z,1.76
2018-12-25T12:54:52.800Z,1.18
2018-12-25T13:00:47.772Z,1.46
2018-12-25T13:06:42.777Z,1.36
2018-12-25T13:12:37.823Z,0.9
2018-12-25T13:18:32.801Z,1.11
2018-12-25T13:24:27.816Z,1
2018-12-25T13:30:22.814Z,0.97
2018-12-25T13:36:17.822Z,0.88
2018-12-25T13:42:12.800Z,0.97
2018-12-25T13:48:07.809Z,3.22
2018-12-25T13:54:02.819Z,1
2018-12-25T13:59:57.914Z,1.04
2018-12-25T14:05:52.891Z,0.93
2018-12-25T14:11:47.821Z,1.15
2018-12-25T14:17:42.901Z,0.83
2018-12-25T14:23:37.869Z,0.89
2018-12-25T14:29:32.841Z,0.82
2018-12-25T14:35:27.844Z,0.83
2018-12-25T14:41:22.850Z,1.14
2018-12-25T14:47:17.836Z,0.86
2018-12-25T14:53:19.647Z,1.22
2018-12-25T14:59:07.919Z,1.71
2018-12-25T15:05:02.858Z,1.15
2018-12-25T15:10:57.863Z,1.51
2018-12-25T15:16:52.922Z,1.22
2018-12-25T15:22:47.856Z,1.4
2018-12-25T15:28:42.871Z,1.53
2018-12-25T15:34:37.896Z,4.16
2018-12-25T15:40:32.883Z,4.07
2018-12-25T15:46:27.897Z,2.79
2018-12-25T15:52:22.891Z,2.39
2018-12-25T15:58:17.908Z,2.57
2018-12-25T16:04:12.918Z,2.17
2018-12-25T16:10:07.915Z,3.6
2018-12-25T16:16:02.900Z,3.67
2018-12-25T16:21:57.930Z,4.26
2018-12-25T16:27:52.891Z,3.39
2018-12-25T16:33:47.913Z,3.87
2018-12-25T16:39:42.922Z,5.81
2018-12-25T16:45:37.952Z,6.17
2018-12-25T16:51:32.921Z,6.17
2018-12-25T16:57:27.917Z,5.86
2018-12-25T17:03:22.989Z,4.9
2018-12-25T17:09:17.937Z,4.83
2018-12-25T17:15:12.955Z,4.28
2018-12-25T17:21:07.936Z,5.97
2018-12-25T17:27:02.953Z,5.74
2018-12-25T17:32:58.001Z,6.87
2018-12-25T17:38:52.966Z,6.33
2018-12-25T17:44:47.946Z,5.71
2018-12-25T17:50:42.973Z,5.2
2018-12-25T17:56:38.175Z,5.35
2018-12-25T18:02:32.981Z,7.03
2018-12-25T18:08:27.952Z,8.4
2018-12-25T18:14:23.011Z,10.26
2018-12-25T18:20:17.971Z,13.64
2018-12-25T18:26:12.983Z,12.19
2018-12-25T18:32:07.966Z,14.6
2018-12-25T18:38:02.999Z,15.29
2018-12-25T18:43:58.002Z,12.28
2018-12-25T18:49:53.068Z,10.13
2018-12-25T18:55:48.001Z,9.7
2018-12-25T19:01:43.003Z,8.12
2018-12-25T19:07:38.014Z,9.71
2018-12-25T19:13:33.027Z,9.06
2018-12-25T19:19:28.012Z,10.02
2018-12-25T19:25:23.043Z,9.83
2018-12-25T19:31:18.024Z,9.6
2018-12-25T19:37:13.122Z,9.77
2018-12-25T19:43:08.032Z,10.93
2018-12-25T19:49:03.011Z,10.51
2018-12-25T19:54:58.038Z,10.25
2018-12-25T20:00:53.082Z,13.67
2018-12-25T20:06:48.060Z,13.43
2018-12-25T20:12:43.048Z,11.47
2018-12-25T20:18:38.061Z,11.49
2018-12-25T20:24:33.103Z,12.24
2018-12-25T20:30:28.064Z,9.61
2018-12-25T20:36:23.053Z,9.46
2018-12-25T20:42:18.088Z,10.15
2018-12-25T20:48:13.064Z,11.24
2018-12-25T20:54:08.073Z,11.57
2018-12-25T21:00:03.048Z,9.1
2018-12-25T21:05:58.078Z,9.35
2018-12-25T21:11:53.106Z,11.25
2018-12-25T21:17:48.064Z,13.81
2018-12-25T21:23:43.156Z,31.87
2018-12-25T21:29:38.083Z,18.95
2018-12-25T21:35:33.076Z,13.7
2018-12-25T21:41:28.151Z,12.08
2018-12-25T21:47:23.098Z,11.7
2018-12-25T21:53:18.090Z,10.11
2018-12-25T21:59:13.092Z,10.87
2018-12-25T22:05:08.133Z,10.7
2018-12-25T22:11:03.136Z,12.03
2018-12-25T22:16:58.091Z,11.48
2018-12-25T22:22:53.096Z,10.4
2018-12-25T22:28:48.118Z,10.65
2018-12-25T22:34:43.121Z,11.33
2018-12-25T22:40:38.130Z,9.46
2018-12-25T22:46:33.118Z,10.09
2018-12-25T22:52:28.121Z,8.7
2018-12-25T22:58:23.126Z,11.14
2018-12-25T23:04:18.128Z,14.58
2018-12-25T23:10:13.170Z,12.5
2018-12-25T23:16:08.165Z,11.13
2018-12-25T23:22:03.142Z,10.86
2018-12-25T23:27:58.162Z,11.63
2018-12-25T23:33:53.144Z,13.87
2018-12-25T23:39:48.126Z,12.27
2018-12-25T23:45:43.188Z,13.79
2018-12-25T23:51:38.143Z,12.09
2018-12-25T23:57:33.203Z,11.27
